createdAt,value
2023-04-18T00:00:59.088Z,98348.06
2023-04-18T00:06:00.980Z,98352.19
2023-04-18T00:11:02.708Z,98345.94
2023-04-18T00:16:04.541Z,98344.97
2023-04-18T00:21:07.107Z,98351.69
2023-04-18T00:26:09.005Z,98338.31
2023-04-18T00:31:10.772Z,98347.78
2023-04-18T00:36:12.579Z,98339.56
2023-04-18T00:41:14.257Z,98342.00
2023-04-18T00:46:16.044Z,98346.25
2023-04-18T00:51:17.893Z,98338.69
2023-04-18T00:56:19.801Z,98337.53
2023-04-18T01:01:21.452Z,98333.75
2023-04-18T01:06:23.707Z,98331.78
2023-04-18T01:11:25.290Z,98326.66
2023-04-18T01:16:27.870Z,98323.34
2023-04-18T01:21:37.430Z,98326.75
2023-04-18T01:26:39.733Z,98326.53
2023-04-18T01:31:41.662Z,98319.72
2023-04-18T01:36:43.457Z,98319.06
2023-04-18T01:41:45.079Z,98316.78
2023-04-18T01:46:46.685Z,98319.19
2023-04-18T01:51:48.275Z,98319.34
2023-04-18T01:56:49.848Z,98314.88
2023-04-18T02:01:51.434Z,98323.81
2023-04-18T02:06:53.303Z,98327.41
2023-04-18T02:11:59.443Z,98317.25
2023-04-18T02:17:01.180Z,98328.81
2023-04-18T02:22:02.751Z,98323.31
2023-04-18T02:27:04.365Z,98332.53
2023-04-18T02:32:06.440Z,98332.31
2023-04-18T02:37:08.103Z,98336.19
2023-04-18T02:42:09.686Z,98339.06
2023-04-18T02:47:11.324Z,98341.31
2023-04-18T02:52:12.927Z,98331.47
2023-04-18T02:57:14.713Z,98334.31
2023-04-18T03:02:16.410Z,98328.81
2023-04-18T03:07:18.076Z,98332.03
2023-04-18T03:12:19.671Z,98329.00
2023-04-18T03:17:21.312Z,98324.56
2023-04-18T03:22:23.024Z,98329.75
2023-04-18T03:27:24.625Z,98331.66
2023-04-18T03:32:26.312Z,98333.75
2023-04-18T03:37:27.948Z,98336.31
2023-04-18T03:42:30.011Z,98333.91
2023-04-18T03:47:32.377Z,98337.63
2023-04-18T03:52:34.032Z,98330.97
2023-04-18T03:57:35.769Z,98345.56
2023-04-18T04:02:37.540Z,98341.69
2023-04-18T04:07:39.289Z,98354.19
2023-04-18T04:12:41.074Z,98351.25
2023-04-18T04:17:42.704Z,98358.38
2023-04-18T04:22:44.326Z,98357.31
2023-04-18T04:27:46.058Z,98364.06
2023-04-18T04:32:47.945Z,98368.78
2023-04-18T04:37:50.755Z,98371.69
2023-04-18T04:42:54.195Z,98374.47
2023-04-18T04:47:55.833Z,98379.06
2023-04-18T04:52:57.435Z,98373.22
2023-04-18T04:57:59.129Z,98382.50
2023-04-18T05:03:00.945Z,98378.06
2023-04-18T05:08:03.296Z,98376.72
2023-04-18T05:13:05.204Z,98383.94
2023-04-18T05:18:07.167Z,98386.78
2023-04-18T05:23:08.812Z,98389.13
2023-04-18T05:28:10.539Z,98393.69
2023-04-18T05:33:12.172Z,98400.41
2023-04-18T05:38:13.791Z,98395.66
2023-04-18T05:43:15.454Z,98397.41
2023-04-18T05:48:17.053Z,98397.56
2023-04-18T05:53:18.623Z,98397.31
2023-04-18T05:58:20.304Z,98394.47
2023-04-18T06:03:22.148Z,98397.88
2023-04-18T06:08:24.124Z,98398.94
2023-04-18T06:13:25.679Z,98403.50
2023-04-18T06:18:27.318Z,98414.03
2023-04-18T06:23:28.953Z,98420.94
2023-04-18T06:28:30.702Z,98424.03
2023-04-18T06:33:33.477Z,98429.03
2023-04-18T06:38:35.110Z,98432.16
2023-04-18T06:43:37.174Z,98428.66
2023-04-18T06:48:38.786Z,98437.03
2023-04-18T06:53:40.634Z,98440.38
2023-04-18T06:58:42.214Z,98439.88
2023-04-18T07:03:43.961Z,98429.91
2023-04-18T07:08:45.767Z,98434.09
2023-04-18T07:13:48.807Z,98443.19
2023-04-18T07:18:51.780Z,98436.41
2023-04-18T07:23:53.407Z,98433.28
2023-04-18T07:28:55.014Z,98439.81
2023-04-18T07:33:57.062Z,98441.78
2023-04-18T07:38:58.666Z,98448.00
2023-04-18T07:44:03.155Z,98449.56
2023-04-18T07:49:04.847Z,98451.84
2023-04-18T07:54:06.481Z,98457.06
2023-04-18T07:59:08.085Z,98450.88
2023-04-18T08:04:09.971Z,98459.69
2023-04-18T08:09:12.626Z,98453.88
2023-04-18T08:14:14.509Z,98457.31
2023-04-18T08:19:16.231Z,98468.16
2023-04-18T08:24:18.088Z,98462.19
2023-04-18T08:29:19.696Z,98467.31
2023-04-18T08:34:21.491Z,98463.44
2023-04-18T08:39:25.247Z,98474.09
2023-04-18T08:44:30.754Z,98488.81
2023-04-18T08:49:32.451Z,98493.88
2023-04-18T08:54:34.382Z,98495.22
2023-04-18T08:59:36.408Z,98498.50
2023-04-18T09:04:39.308Z,98499.94
2023-04-18T09:09:41.864Z,98498.50
2023-04-18T09:14:46.718Z,98509.25
2023-04-18T09:19:50.382Z,98507.53
2023-04-18T09:24:57.537Z,98507.69
2023-04-18T09:30:00.872Z,98505.31
2023-04-18T09:35:05.505Z,98504.25
2023-04-18T09:40:25.588Z,98497.47
2023-04-18T09:45:27.487Z,98503.56
2023-04-18T09:50:29.442Z,98508.72
2023-04-18T09:55:32.065Z,98502.78
2023-04-18T10:00:34.590Z,98496.47
2023-04-18T10:05:38.821Z,98502.84
2023-04-18T10:10:40.868Z,98510.00
2023-04-18T10:15:44.300Z,98505.50
2023-04-18T10:20:47.218Z,98509.84
2023-04-18T10:25:50.090Z,98504.03
2023-04-18T10:30:54.037Z,98499.84
2023-04-18T10:36:14.446Z,98501.75
2023-04-18T10:41:18.728Z,98498.03
2023-04-18T10:46:31.003Z,98497.25
2023-04-18T10:51:36.052Z,98494.50
2023-04-18T10:56:37.888Z,98488.41
2023-04-18T11:01:55.134Z,98480.91
2023-04-18T11:06:58.501Z,98483.69
2023-04-18T11:12:10.732Z,98485.31
2023-04-18T11:17:23.837Z,98485.44
2023-04-18T11:22:25.986Z,98485.03
2023-04-18T11:27:29.604Z,98471.13
2023-04-18T11:32:31.471Z,98477.94
2023-04-18T11:37:33.231Z,98476.72
2023-04-18T11:42:37.321Z,98481.59
2023-04-18T11:47:39.496Z,98474.94
2023-04-18T11:52:42.677Z,98468.63
2023-04-18T11:57:58.918Z,98463.81
2023-04-18T12:03:02.933Z,98461.41
2023-04-18T12:08:20.031Z,98462.38
2023-04-18T12:13:32.690Z,98471.53
2023-04-18T12:18:34.343Z,98472.19
2023-04-18T12:23:37.249Z,98472.59
2023-04-18T12:28:39.000Z,98465.69
2023-04-18T12:33:40.731Z,98461.53
2023-04-18T12:38:42.287Z,98471.13
2023-04-18T12:43:43.890Z,98472.31
2023-04-18T12:48:45.815Z,98467.53
2023-04-18T12:53:47.461Z,98466.44
2023-04-18T12:58:49.477Z,98471.13
2023-04-18T13:04:03.846Z,98473.28
2023-04-18T13:09:12.728Z,98479.31
2023-04-18T13:14:14.647Z,98474.47
2023-04-18T13:19:16.519Z,98480.53
2023-04-18T13:24:18.182Z,98483.78
2023-04-18T13:29:19.772Z,98481.91
2023-04-18T13:34:21.349Z,98486.41
2023-04-18T13:39:24.850Z,98487.16
2023-04-18T13:44:26.828Z,98488.94
2023-04-18T13:49:28.612Z,98487.38
2023-04-18T13:54:31.817Z,98489.06
2023-04-18T13:59:33.523Z,98489.50
2023-04-18T14:04:35.381Z,98492.38
2023-04-18T14:09:37.051Z,98498.00
2023-04-18T14:14:38.701Z,98506.97
2023-04-18T14:19:40.289Z,98503.25
2023-04-18T14:24:41.952Z,98508.69
2023-04-18T14:29:43.568Z,98500.34
2023-04-18T14:34:45.249Z,98507.81
2023-04-18T14:39:46.958Z,98510.44
2023-04-18T14:44:48.551Z,98511.44
2023-04-18T14:49:50.138Z,98515.53
2023-04-18T14:54:52.146Z,98509.00
2023-04-18T14:59:54.905Z,98517.59
2023-04-18T15:04:56.711Z,98521.44
2023-04-18T15:09:58.511Z,98519.75
2023-04-18T15:15:00.608Z,98525.50
2023-04-18T15:20:05.584Z,98532.06
2023-04-18T15:25:07.773Z,98535.41
2023-04-18T15:30:12.127Z,98532.69
2023-04-18T15:35:14.210Z,98539.13
2023-04-18T15:40:19.126Z,98538.06
2023-04-18T15:45:21.898Z,98537.59
2023-04-18T15:50:24.280Z,98536.41
2023-04-18T15:55:25.926Z,98542.25
2023-04-18T16:00:27.647Z,98541.72
2023-04-18T16:05:29.371Z,98548.41
2023-04-18T16:10:31.140Z,98554.81
2023-04-18T16:15:35.831Z,98558.84
2023-04-18T16:20:37.498Z,98561.88
2023-04-18T16:25:39.079Z,98559.63
2023-04-18T16:30:43.796Z,98564.19
2023-04-18T16:35:45.553Z,98568.84
2023-04-18T16:40:47.185Z,98560.78
2023-04-18T16:45:49.041Z,98567.66
2023-04-18T16:50:50.874Z,98569.56
2023-04-18T16:55:53.500Z,98572.66
2023-04-18T17:00:55.709Z,98582.94
2023-04-18T17:05:57.671Z,98579.84
2023-04-18T17:10:59.856Z,98591.63
2023-04-18T17:16:01.983Z,98584.81
2023-04-18T17:21:04.223Z,98590.28
2023-04-18T17:26:06.688Z,98600.41
2023-04-18T17:31:10.897Z,98613.56
2023-04-18T17:36:13.134Z,98610.16
2023-04-18T17:41:19.961Z,98620.13
2023-04-18T17:46:22.233Z,98623.84
2023-04-18T17:51:29.841Z,98623.94
2023-04-18T17:56:33.136Z,98625.66
2023-04-18T18:01:35.454Z,98624.41
2023-04-18T18:06:37.702Z,98633.19
2023-04-18T18:11:40.667Z,98649.00
2023-04-18T18:16:44.105Z,98645.69
2023-04-18T18:21:47.699Z,98648.53
2023-04-18T18:26:52.039Z,98656.91
2023-04-18T18:31:54.367Z,98669.34
2023-04-18T18:36:57.758Z,98674.56
2023-04-18T18:42:00.957Z,98670.28
2023-04-18T18:47:03.593Z,98669.69
2023-04-18T18:52:05.562Z,98677.22
2023-04-18T18:57:09.607Z,98686.69
2023-04-18T19:02:12.329Z,98680.03
2023-04-18T19:07:14.960Z,98685.84
2023-04-18T19:12:17.542Z,98689.56
2023-04-18T19:17:22.498Z,98683.66
2023-04-18T19:22:26.176Z,98678.78
2023-04-18T19:27:28.427Z,98684.00
2023-04-18T19:32:31.896Z,98683.47
2023-04-18T19:37:34.190Z,98684.25
2023-04-18T19:42:36.461Z,98676.50
2023-04-18T19:47:38.984Z,98675.06
2023-04-18T19:52:44.348Z,98674.75
2023-04-18T19:57:48.090Z,98670.94
2023-04-18T20:02:50.032Z,98677.44
2023-04-18T20:07:53.917Z,98671.72
2023-04-18T20:12:55.834Z,98682.09
2023-04-18T20:17:57.867Z,98669.44
2023-04-18T20:23:00.031Z,98672.53
2023-04-18T20:28:03.445Z,98676.28
2023-04-18T20:33:05.548Z,98681.63
2023-04-18T20:38:11.622Z,98677.75
2023-04-18T20:43:17.504Z,98674.38
2023-04-18T20:48:19.692Z,98672.06
2023-04-18T20:53:22.813Z,98658.97
2023-04-18T20:58:24.925Z,98649.66
2023-04-18T21:03:27.105Z,98654.44
2023-04-18T21:08:28.792Z,98665.16
2023-04-18T21:13:31.784Z,98655.47
2023-04-18T21:18:33.929Z,98648.63
2023-04-18T21:23:41.960Z,98660.78
2023-04-18T21:28:56.538Z,98660.28
2023-04-18T21:34:00.345Z,98666.44
2023-04-18T21:39:02.011Z,98671.41
2023-04-18T21:44:03.809Z,98693.06
2023-04-18T21:49:05.450Z,98692.25
2023-04-18T21:54:10.165Z,98680.47
2023-04-18T21:59:11.744Z,98691.56
2023-04-18T22:04:14.830Z,98672.94
2023-04-18T22:09:19.330Z,98670.03
2023-04-18T22:14:20.916Z,98667.81
2023-04-18T22:19:22.825Z,98672.22
2023-04-18T22:24:25.989Z,98664.34
2023-04-18T22:29:27.602Z,98674.53
2023-04-18T22:34:30.520Z,98681.97
2023-04-18T22:39:32.192Z,98672.84
2023-04-18T22:44:33.772Z,98665.56
2023-04-18T22:49:35.657Z,98664.03
2023-04-18T22:54:40.397Z,98654.56
2023-04-18T22:59:42.050Z,98647.97
2023-04-18T23:04:45.440Z,98658.84
2023-04-18T23:09:47.176Z,98648.50
2023-04-18T23:14:48.853Z,98652.16
2023-04-18T23:19:50.449Z,98654.63
2023-04-18T23:24:52.357Z,98642.91
2023-04-18T23:29:53.938Z,98640.69
2023-04-18T23:34:56.465Z,98631.97
2023-04-18T23:39:59.274Z,98626.28
2023-04-18T23:45:01.329Z,98626.50
2023-04-18T23:50:03.030Z,98625.50
2023-04-18T23:55:04.955Z,98621.81
